Time;durP1;ratioP1;P1;durP2;ratioP2;P2;SDS_P1;SDS_P2;PMS_P1;PMS_P2;Temp;Humidity;BMP_temperature;BMP_pressure;BME280_temperature;BME280_humidity;BME280_pressure;Samples;Min_cycle;Max_cycle;Signal;HPM_P1;HPM_P2
2023/11/30 00:00:50;;;;;;;3.92;3.63;;;-1.80;99.90;;;;;;5049160;28;20185;-81
2023/11/30 00:03:17;;;;;;;1.73;1.63;;;-1.70;99.90;;;;;;5050522;28;20185;-84
2023/11/30 00:05:45;;;;;;;6.05;3.85;;;-1.60;99.90;;;;;;5049972;28;20286;-84
2023/11/30 00:08:12;;;;;;;0.82;0.82;;;-1.60;99.90;;;;;;5033292;28;20283;-85
2023/11/30 00:10:39;;;;;;;2.38;1.40;;;-1.60;99.90;;;;;;5038087;28;20272;-87
2023/11/30 00:13:06;;;;;;;0.85;0.85;;;-1.50;99.90;;;;;;5039484;28;20271;-85
2023/11/30 00:15:33;;;;;;;1.27;1.27;;;-1.50;99.90;;;;;;5026718;28;20240;-83
2023/11/30 00:18:00;;;;;;;2.05;1.95;;;-1.60;99.90;;;;;;5038229;28;20201;-85
2023/11/30 00:20:28;;;;;;;3.45;2.05;;;-1.70;99.90;;;;;;5038064;28;20453;-85
2023/11/30 00:22:59;;;;;;;2.20;2.08;;;-1.70;99.90;;;;;;5038346;28;20208;-82
2023/11/30 00:25:28;;;;;;;1.48;1.48;;;-1.70;99.90;;;;;;5038975;28;20209;-85
2023/11/30 00:27:55;;;;;;;3.80;2.58;;;-1.70;99.90;;;;;;5037880;28;20217;-85
2023/11/30 00:30:22;;;;;;;1.73;1.63;;;-1.70;99.90;;;;;;5038294;28;20252;-85
2023/11/30 00:32:50;;;;;;;2.10;1.98;;;-1.60;99.90;;;;;;5024587;28;20216;-86
2023/11/30 00:35:17;;;;;;;2.65;2.50;;;-1.60;99.90;;;;;;5037350;28;20271;-84
2023/11/30 00:37:43;;;;;;;2.13;1.33;;;-1.70;99.90;;;;;;5032900;28;20276;-87
2023/11/30 00:40:11;;;;;;;1.30;1.25;;;-1.70;99.90;;;;;;5036772;28;20208;-84
2023/11/30 00:42:40;;;;;;;6.47;3.85;;;-1.70;99.90;;;;;;5039647;28;20541;-83
2023/11/30 00:45:08;;;;;;;0.80;0.80;;;-1.60;99.90;;;;;;5044616;28;20207;-83
2023/11/30 00:47:36;;;;;;;1.35;1.25;;;-1.60;99.90;;;;;;5038770;28;20209;-84
2023/11/30 00:50:03;;;;;;;3.63;2.35;;;-1.60;99.90;;;;;;5030410;28;20232;-84
2023/11/30 00:52:30;;;;;;;2.05;1.92;;;-1.60;99.90;;;;;;5038101;28;20244;-86
2023/11/30 00:54:59;;;;;;;4.25;3.10;;;-1.60;99.90;;;;;;5037849;28;20273;-85
2023/11/30 00:57:27;;;;;;;1.08;1.08;;;-1.40;99.90;;;;;;5020576;28;20205;-86
2023/11/30 00:59:54;;;;;;;3.97;3.80;;;-1.50;99.90;;;;;;5038111;28;20216;-83
2023/11/30 01:02:22;;;;;;;1.85;1.80;;;-1.50;99.90;;;;;;5041262;28;20209;-85
2023/11/30 01:04:48;;;;;;;2.13;1.27;;;-1.50;99.90;;;;;;5040148;28;20235;-85
2023/11/30 01:07:15;;;;;;;0.80;0.80;;;-1.40;99.90;;;;;;5036959;28;20208;-82
2023/11/30 01:09:43;;;;;;;1.52;1.52;;;-1.40;99.90;;;;;;5019912;28;20224;-82
2023/11/30 01:12:10;;;;;;;1.42;1.42;;;-1.40;99.90;;;;;;5022745;28;20236;-83
2023/11/30 01:14:40;;;;;;;2.28;2.17;;;-1.40;99.90;;;;;;5022390;28;20205;-84
2023/11/30 01:17:08;;;;;;;1.67;1.58;;;-1.40;99.90;;;;;;5038278;28;20268;-84
2023/11/30 01:19:36;;;;;;;2.85;2.65;;;-1.40;99.90;;;;;;5039289;28;20208;-85
2023/11/30 01:22:05;;;;;;;2.25;2.15;;;-1.40;99.90;;;;;;5046846;28;20196;-83
2023/11/30 01:24:32;;;;;;;3.15;2.95;;;-1.40;99.90;;;;;;5053412;28;20189;-80
2023/11/30 01:27:00;;;;;;;3.53;3.30;;;-1.30;99.90;;;;;;5054426;28;20193;-82
2023/11/30 01:29:29;;;;;;;2.15;2.00;;;-1.30;99.90;;;;;;5055544;28;20223;-83
2023/11/30 01:31:56;;;;;;;2.03;1.92;;;-1.30;99.90;;;;;;5056174;28;20208;-82
2023/11/30 01:34:23;;;;;;;1.55;1.55;;;-1.20;99.90;;;;;;5039417;28;20276;-82
2023/11/30 01:36:51;;;;;;;2.10;2.00;;;-1.10;99.90;;;;;;5056597;28;20189;-84
2023/11/30 01:39:18;;;;;;;1.20;1.20;;;-1.10;99.90;;;;;;5056522;28;20181;-86
2023/11/30 01:41:46;;;;;;;1.67;1.58;;;-1.10;99.90;;;;;;5044426;28;20587;-86
2023/11/30 01:44:14;;;;;;;7.20;4.30;;;-1.00;99.90;;;;;;5045572;28;20498;-84
2023/11/30 01:46:43;;;;;;;1.05;1.05;;;-1.00;99.90;;;;;;5039461;28;20201;-82
2023/11/30 01:49:11;;;;;;;2.75;2.65;;;-0.90;99.90;;;;;;5047093;28;20228;-81
2023/11/30 01:51:38;;;;;;;3.20;3.00;;;-1.00;99.90;;;;;;5040914;28;20239;-85
2023/11/30 01:56:48;;;;;;;3.95;3.20;;;-0.90;99.90;;;;;;5693130;22;20240;-87
2023/11/30 02:01:58;;;;;;;2.10;2.03;;;-0.90;99.90;;;;;;5252608;22;20434;-84
2023/11/30 02:04:30;;;;;;;20.63;2.38;;;-0.90;99.90;;;;;;5042805;28;20201;-85
2023/11/30 02:06:57;;;;;;;1.20;1.20;;;-1.00;99.90;;;;;;5040372;28;20231;-86
2023/11/30 02:14:48;;;;;;;1.00;1.00;;;-0.80;99.90;;;;;;5663153;22;20286;-82
2023/11/30 02:17:16;;;;;;;3.15;2.88;;;-0.70;99.90;;;;;;5084662;28;20188;-88
2023/11/30 02:19:44;;;;;;;2.60;2.50;;;-0.80;99.90;;;;;;5066335;28;20208;-85
2023/11/30 02:22:13;;;;;;;4.97;4.55;;;-0.80;99.90;;;;;;5067143;28;20204;-89
2023/11/30 02:24:40;;;;;;;4.75;4.43;;;-0.70;99.90;;;;;;5065302;28;20211;-86
2023/11/30 02:27:13;;;;;;;7.07;6.38;;;-0.70;99.90;;;;;;5057650;28;20232;-87
2023/11/30 02:29:40;;;;;;;7.50;6.38;;;-0.70;99.90;;;;;;5059681;28;20232;-88
2023/11/30 02:32:07;;;;;;;8.82;7.43;;;-0.70;99.90;;;;;;5061895;28;20204;-85
2023/11/30 02:34:37;;;;;;;6.13;5.72;;;-0.70;99.90;;;;;;5058763;28;20227;-87
2023/11/30 02:37:04;;;;;;;8.68;7.78;;;-0.60;99.90;;;;;;5062097;28;20299;-85
2023/11/30 02:39:33;;;;;;;13.85;9.48;;;-0.60;99.90;;;;;;5072515;28;20200;-88
2023/11/30 02:42:05;;;;;;;14.50;13.25;;;-0.70;99.90;;;;;;5543322;22;20216;-84
2023/11/30 02:44:34;;;;;;;12.50;9.52;;;-0.70;99.90;;;;;;5095519;28;20243;-85
2023/11/30 02:47:06;;;;;;;11.15;10.27;;;-0.60;99.90;;;;;;5086584;28;20253;-83
2023/11/30 02:49:34;;;;;;;8.38;7.78;;;-0.70;99.90;;;;;;5078162;28;20304;-86
2023/11/30 02:52:02;;;;;;;7.22;6.68;;;-0.70;99.90;;;;;;5072103;28;20279;-83
2023/11/30 02:54:32;;;;;;;21.00;9.25;;;-0.70;99.90;;;;;;5087711;28;20215;-87
2023/11/30 02:56:59;;;;;;;5.45;5.15;;;-0.70;99.90;;;;;;5092235;28;20511;-87
2023/11/30 02:59:31;;;;;;;12.32;7.50;;;-0.80;99.90;;;;;;5092899;28;20196;-89
2023/11/30 03:01:58;;;;;;;2.85;2.75;;;-0.80;99.90;;;;;;5075354;28;20524;-86
2023/11/30 03:04:27;;;;;;;3.63;3.42;;;-0.80;99.90;;;;;;5068279;28;20204;-84
2023/11/30 03:06:56;;;;;;;1.80;1.70;;;-0.80;99.90;;;;;;5278158;22;20239;-90
2023/11/30 03:09:25;;;;;;;2.25;2.05;;;-0.90;99.90;;;;;;5076410;28;20262;-85
2023/11/30 03:11:57;;;;;;;4.70;4.15;;;-0.80;99.90;;;;;;5074681;28;20199;-88
2023/11/30 03:14:25;;;;;;;2.95;2.75;;;-0.90;99.90;;;;;;5071750;28;20489;-88
2023/11/30 03:16:53;;;;;;;2.15;2.05;;;-0.90;99.90;;;;;;5068711;28;20235;-89
2023/11/30 03:19:24;;;;;;;3.65;2.30;;;-0.90;99.90;;;;;;5062378;28;20205;-88
2023/11/30 03:21:54;;;;;;;1.88;1.77;;;-0.90;99.90;;;;;;5054463;28;20231;-87
2023/11/30 03:24:23;;;;;;;2.30;2.08;;;-0.80;99.90;;;;;;5064826;28;20208;-89
2023/11/30 03:26:50;;;;;;;4.03;3.83;;;-0.70;99.90;;;;;;5065128;28;20188;-85
2023/11/30 03:29:17;;;;;;;1.75;1.67;;;-0.70;99.90;;;;;;5078766;28;20187;-80
2023/11/30 03:31:45;;;;;;;1.77;1.67;;;-0.70;99.90;;;;;;5079343;28;20211;-87
2023/11/30 03:34:22;;;;;;;1.35;1.25;;;-0.70;99.90;;;;;;5066704;28;20200;-88
2023/11/30 03:36:49;;;;;;;1.33;1.27;;;-0.80;99.90;;;;;;5061878;28;20272;-87
2023/11/30 03:39:17;;;;;;;3.22;3.03;;;-0.70;99.90;;;;;;5052640;28;20204;-87
2023/11/30 03:41:47;;;;;;;1.05;1.05;;;-0.70;99.90;;;;;;5065021;28;20324;-87
2023/11/30 03:44:16;;;;;;;1.77;1.77;;;-0.60;99.90;;;;;;5069352;28;20520;-90
2023/11/30 03:46:43;;;;;;;3.30;2.60;;;-0.70;99.90;;;;;;5078233;28;20222;-84
2023/11/30 03:49:10;;;;;;;1.70;1.60;;;-0.70;99.90;;;;;;5077625;28;20200;-83
2023/11/30 03:51:40;;;;;;;4.70;4.45;;;-0.80;99.90;;;;;;5080184;28;20184;-82
2023/11/30 03:54:08;;;;;;;1.83;1.77;;;-0.80;99.90;;;;;;5075106;28;20226;-82
2023/11/30 03:56:35;;;;;;;1.70;1.60;;;-0.70;99.90;;;;;;5063875;28;20204;-89
2023/11/30 03:59:02;;;;;;;0.80;0.80;;;-0.70;99.90;;;;;;5064331;28;20212;-85
2023/11/30 04:01:43;;;;;;;0.65;0.65;;;-0.80;99.90;;;;;;5071008;28;20260;-91
2023/11/30 04:04:11;;;;;;;0.80;0.80;;;-0.70;99.90;;;;;;5071061;28;20208;-85
2023/11/30 04:06:40;;;;;;;1.27;1.27;;;-0.80;99.90;;;;;;5073068;28;20200;-90
2023/11/30 04:09:08;;;;;;;0.80;0.80;;;-0.90;99.90;;;;;;5074646;28;20211;-84
2023/11/30 04:14:13;;;;;;;2.55;2.42;;;-0.90;99.90;;;;;;5208343;22;20222;-82
2023/11/30 04:16:40;;;;;;;4.05;2.83;;;-0.90;99.90;;;;;;5075146;28;20300;-80
2023/11/30 04:19:10;;;;;;;7.35;4.32;;;-1.00;99.90;;;;;;5281729;22;20254;-85
2023/11/30 04:27:03;;;;;;;0.65;0.65;;;-1.10;99.90;;;;;;5755478;22;20221;-85
2023/11/30 04:32:12;;;;;;;7.78;2.75;;;-1.30;99.90;;;;;;5289995;22;20242;-84
2023/11/30 04:34:42;;;;;;;4.78;4.00;;;-1.30;99.90;;;;;;5058544;28;20244;-86
2023/11/30 04:37:09;;;;;;;3.15;2.95;;;-1.40;99.90;;;;;;5060928;28;20204;-86
2023/11/30 04:39:38;;;;;;;2.35;2.25;;;-1.50;99.90;;;;;;5054166;28;20201;-85
2023/11/30 04:42:05;;;;;;;4.40;3.97;;;-1.50;99.90;;;;;;5059113;28;20248;-84
2023/11/30 04:47:16;;;;;;;1.73;1.70;;;-1.50;99.90;;;;;;5414361;22;20248;-84
2023/11/30 04:55:02;;;;;;;1.35;1.30;;;-1.40;99.90;;;;;;5809956;22;20211;-84
2023/11/30 05:02:55;;;;;;;1.85;1.75;;;-1.20;99.90;;;;;;5567575;22;20224;-84
2023/11/30 05:05:23;;;;;;;3.78;3.50;;;-1.20;99.90;;;;;;5394308;22;20478;-84
2023/11/30 05:07:51;;;;;;;5.80;3.83;;;-1.20;99.90;;;;;;5069750;28;20211;-88
2023/11/30 05:10:19;;;;;;;2.25;2.15;;;-1.20;99.90;;;;;;5070342;28;20263;-86
2023/11/30 05:12:46;;;;;;;4.07;3.67;;;-1.40;99.90;;;;;;5064752;28;20243;-88
2023/11/30 05:15:13;;;;;;;1.08;1.08;;;-1.30;99.90;;;;;;5073676;28;20544;-85
2023/11/30 05:17:41;;;;;;;3.00;2.72;;;-1.30;99.90;;;;;;5057986;28;20215;-84
2023/11/30 05:20:10;;;;;;;2.08;1.98;;;-1.40;99.90;;;;;;5049308;28;20220;-85
2023/11/30 05:22:37;;;;;;;3.55;3.25;;;-1.40;99.90;;;;;;5067591;28;20295;-90
2023/11/30 05:25:04;;;;;;;1.58;1.58;;;-1.30;99.90;;;;;;5060569;28;20217;-85
2023/11/30 05:30:11;;;;;;;2.70;2.50;;;-1.30;99.90;;;;;;4995126;28;20233;-80
2023/11/30 05:32:42;;;;;;;2.88;2.72;;;-1.20;99.90;;;;;;5723094;22;20318;-83
2023/11/30 05:35:09;;;;;;;2.15;2.05;;;-1.20;99.90;;;;;;5074403;28;20203;-85
2023/11/30 05:37:47;;;;;;;2.58;2.38;;;-1.20;99.90;;;;;;5561344;22;20257;-88
2023/11/30 05:40:16;;;;;;;4.25;3.95;;;-1.20;99.90;;;;;;5077203;28;20199;-87
2023/11/30 05:42:47;;;;;;;1.45;1.08;;;-1.00;99.90;;;;;;5071431;28;20192;-86
2023/11/30 05:45:15;;;;;;;4.75;2.45;;;-1.10;99.90;;;;;;5225110;22;20263;-88
2023/11/30 05:50:24;;;;;;;1.65;1.60;;;-1.00;99.90;;;;;;5396267;22;20224;-83
2023/11/30 05:52:54;;;;;;;2.92;2.83;;;-0.90;99.90;;;;;;5300138;23;20220;-85
2023/11/30 05:55:28;;;;;;;5.47;1.60;;;-0.90;99.90;;;;;;5623069;22;20227;-85
2023/11/30 05:57:58;;;;;;;3.08;2.97;;;-0.80;99.90;;;;;;5331934;22;20271;-85
2023/11/30 06:02:59;;;;;;;2.88;2.65;;;-0.80;99.90;;;;;;5011020;28;20210;-89
2023/11/30 06:05:31;;;;;;;5.05;4.75;;;-0.80;99.90;;;;;;5009241;28;20229;-86
2023/11/30 06:08:01;;;;;;;6.05;4.97;;;-0.90;99.90;;;;;;5009273;28;20206;-87
2023/11/30 06:10:36;;;;;;;4.18;3.95;;;-0.80;99.90;;;;;;5008503;28;20241;-85
2023/11/30 06:13:07;;;;;;;1.75;1.52;;;-0.90;99.90;;;;;;5006863;28;20224;-84
2023/11/30 06:15:36;;;;;;;4.70;3.95;;;-0.90;99.90;;;;;;5009377;28;20213;-86
2023/11/30 06:18:04;;;;;;;3.10;2.95;;;-0.80;99.90;;;;;;5014364;28;20195;-82
2023/11/30 06:20:34;;;;;;;1.73;1.63;;;-0.80;99.90;;;;;;5020421;28;20216;-88
2023/11/30 06:23:01;;;;;;;5.43;3.10;;;-0.80;99.90;;;;;;5016290;28;20190;-87
2023/11/30 06:41:28;;;;;;;4.65;4.45;;;-0.70;99.90;;;;;;5554013;22;20214;-89
2023/11/30 07:02:38;;;;;;;2.75;2.58;;;-0.20;99.90;;;;;;5863865;22;20197;-86
2023/11/30 07:05:06;;;;;;;4.05;3.72;;;-0.30;99.90;;;;;;5076943;28;20287;-85
2023/11/30 07:07:36;;;;;;;1.35;1.35;;;-0.30;99.90;;;;;;5258661;23;20238;-86
2023/11/30 07:10:07;;;;;;;3.28;3.10;;;-0.30;99.90;;;;;;5109641;28;20278;-87
2023/11/30 07:12:36;;;;;;;3.58;3.38;;;-0.40;99.90;;;;;;5096052;28;20247;-87
2023/11/30 07:15:07;;;;;;;5.10;4.80;;;-0.40;99.90;;;;;;5123074;22;20238;-83
2023/11/30 07:17:36;;;;;;;2.72;1.60;;;-0.50;99.90;;;;;;5157609;22;20504;-87
2023/11/30 07:20:04;;;;;;;2.00;1.77;;;-0.40;99.90;;;;;;5053100;28;20280;-83
2023/11/30 07:22:31;;;;;;;3.53;3.33;;;-0.30;99.90;;;;;;5356003;22;20236;-83
2023/11/30 07:24:58;;;;;;;3.25;2.95;;;-0.20;99.90;;;;;;5204623;22;20502;-84
2023/11/30 07:27:26;;;;;;;1.80;1.70;;;0.10;99.90;;;;;;5073835;28;20169;-84
2023/11/30 07:35:12;;;;;;;2.67;2.55;;;0.00;99.90;;;;;;6061919;22;20187;-88
2023/11/30 08:36:08;;;;;;;2.75;2.65;;;1.40;99.90;;;;;;5958960;22;20243;-86
2023/11/30 08:41:16;;;;;;;1.60;1.60;;;1.60;99.90;;;;;;5546332;23;20199;-84
2023/11/30 08:43:43;;;;;;;3.55;3.45;;;1.70;99.90;;;;;;5097916;28;20184;-86
2023/11/30 08:46:10;;;;;;;4.82;4.63;;;1.80;99.90;;;;;;5097373;28;20263;-84
2023/11/30 08:48:37;;;;;;;2.67;2.53;;;1.70;99.90;;;;;;5384623;22;20275;-86
2023/11/30 08:51:04;;;;;;;3.03;2.92;;;1.60;99.90;;;;;;5057269;28;20252;-84
2023/11/30 08:53:31;;;;;;;4.95;4.55;;;1.40;99.90;;;;;;5057407;28;20157;-85
2023/11/30 08:56:06;;;;;;;2.47;2.38;;;1.40;99.90;;;;;;5056012;28;20224;-85
2023/11/30 08:58:32;;;;;;;3.72;3.10;;;1.40;99.90;;;;;;5055507;28;20172;-86
2023/11/30 09:00:59;;;;;;;3.10;2.95;;;1.40;99.90;;;;;;5053467;28;20223;-82
2023/11/30 09:03:26;;;;;;;1.40;1.40;;;1.40;99.90;;;;;;5056080;28;20407;-83
2023/11/30 09:05:53;;;;;;;3.65;2.90;;;1.30;99.90;;;;;;5057469;28;20204;-84
2023/11/30 09:08:20;;;;;;;5.75;5.40;;;1.40;99.90;;;;;;5058655;28;20212;-85
2023/11/30 09:10:50;;;;;;;1.48;1.48;;;1.50;99.90;;;;;;5060497;28;20250;-84
2023/11/30 09:13:18;;;;;;;3.08;2.88;;;1.50;99.90;;;;;;5060542;28;20185;-86
2023/11/30 09:15:45;;;;;;;2.70;2.55;;;1.50;99.90;;;;;;5059960;28;20208;-84
2023/11/30 09:18:15;;;;;;;5.47;4.05;;;1.60;99.90;;;;;;5051592;28;20189;-87
2023/11/30 09:20:42;;;;;;;5.15;4.85;;;1.50;99.90;;;;;;5049094;28;20243;-88
2023/11/30 09:23:09;;;;;;;2.22;2.13;;;1.50;99.90;;;;;;5049550;28;20196;-86
2023/11/30 09:25:36;;;;;;;9.10;5.50;;;1.50;99.90;;;;;;5049309;28;20242;-87
2023/11/30 09:28:03;;;;;;;6.60;4.70;;;1.40;99.90;;;;;;5044264;28;20255;-86
2023/11/30 09:30:30;;;;;;;2.53;2.38;;;1.60;99.90;;;;;;5044518;28;20710;-86
2023/11/30 09:32:56;;;;;;;3.22;3.03;;;1.40;99.90;;;;;;5043935;28;20208;-86
2023/11/30 09:35:24;;;;;;;2.40;2.28;;;1.60;99.90;;;;;;5044711;28;20205;-85
2023/11/30 09:37:52;;;;;;;4.15;3.58;;;1.60;99.90;;;;;;5043919;28;20213;-85
2023/11/30 09:40:19;;;;;;;3.88;3.72;;;1.50;99.90;;;;;;5042209;28;20780;-86
2023/11/30 09:42:46;;;;;;;2.90;2.70;;;1.40;99.90;;;;;;5043196;28;20271;-87
2023/11/30 09:45:15;;;;;;;5.40;4.78;;;1.30;99.90;;;;;;5042881;28;20220;-86
2023/11/30 09:47:42;;;;;;;4.07;3.80;;;1.10;99.90;;;;;;5043098;28;20240;-83
2023/11/30 09:50:10;;;;;;;9.23;4.95;;;1.00;99.90;;;;;;5034977;28;20185;-85
2023/11/30 09:52:37;;;;;;;10.00;5.43;;;0.90;99.90;;;;;;5043258;28;20237;-86
2023/11/30 09:55:05;;;;;;;9.57;8.75;;;1.00;99.90;;;;;;5042567;28;20209;-84
2023/11/30 09:57:32;;;;;;;4.78;4.55;;;1.20;99.90;;;;;;5041518;28;20465;-85
2023/11/30 10:00:00;;;;;;;3.63;3.42;;;1.10;99.90;;;;;;5050904;28;20200;-85
2023/11/30 10:02:27;;;;;;;6.43;5.05;;;1.30;99.90;;;;;;5042167;28;20232;-85
2023/11/30 10:04:56;;;;;;;2.00;1.90;;;1.50;99.90;;;;;;5042574;28;20217;-86
2023/11/30 10:07:24;;;;;;;4.82;4.43;;;1.60;99.90;;;;;;5050043;28;20196;-85
2023/11/30 10:09:52;;;;;;;3.95;3.65;;;1.80;99.90;;;;;;5054291;28;20231;-86
2023/11/30 10:12:19;;;;;;;4.10;3.78;;;1.60;99.90;;;;;;5049324;28;20232;-84
2023/11/30 10:17:23;;;;;;;2.28;2.17;;;1.40;99.90;;;;;;5032439;28;20217;-86
2023/11/30 10:19:50;;;;;;;3.85;3.65;;;1.40;99.90;;;;;;5025797;28;20213;-83
2023/11/30 10:22:22;;;;;;;2.15;2.03;;;1.60;99.90;;;;;;5021851;28;20201;-84
2023/11/30 10:24:52;;;;;;;3.60;2.83;;;1.90;99.90;;;;;;5032344;28;20209;-85
2023/11/30 10:27:21;;;;;;;3.75;3.50;;;2.20;99.90;;;;;;5019484;28;20240;-85
2023/11/30 10:29:49;;;;;;;2.80;2.60;;;2.60;99.90;;;;;;5024572;28;20529;-85
2023/11/30 10:32:17;;;;;;;3.38;3.17;;;2.40;99.90;;;;;;5022509;28;20237;-81
2023/11/30 10:34:48;;;;;;;3.92;3.72;;;2.60;99.90;;;;;;5021911;28;20216;-85
2023/11/30 10:37:22;;;;;;;2.10;2.00;;;2.50;99.90;;;;;;5023728;28;20232;-85
2023/11/30 10:40:09;;;;;;;1.55;1.55;;;2.50;99.90;;;;;;5005978;28;20200;-84
2023/11/30 10:42:40;;;;;;;2.80;2.67;;;2.60;99.90;;;;;;5023123;28;20423;-85
2023/11/30 10:45:11;;;;;;;2.88;2.78;;;2.50;99.90;;;;;;5023750;28;20197;-84
2023/11/30 10:47:42;;;;;;;2.00;1.90;;;2.70;99.90;;;;;;5022574;28;20386;-86
2023/11/30 10:50:11;;;;;;;4.35;4.13;;;2.80;99.90;;;;;;5248837;22;20235;-88
2023/11/30 10:52:43;;;;;;;3.88;3.67;;;2.80;99.90;;;;;;5060297;28;20229;-88
2023/11/30 10:55:11;;;;;;;1.88;1.77;;;2.80;99.90;;;;;;5057562;28;20215;-87
2023/11/30 10:57:43;;;;;;;0.90;0.90;;;2.70;99.90;;;;;;5062193;28;20219;-88
2023/11/30 11:00:12;;;;;;;2.63;2.50;;;2.80;99.90;;;;;;5164400;22;20262;-87
2023/11/30 11:02:44;;;;;;;2.97;2.88;;;2.80;99.90;;;;;;5047013;28;20204;-84
2023/11/30 11:05:13;;;;;;;2.45;1.98;;;2.80;99.90;;;;;;5039864;28;20205;-85
2023/11/30 11:07:45;;;;;;;4.20;4.00;;;3.00;99.90;;;;;;5043150;28;20216;-84
2023/11/30 11:10:35;;;;;;;1.58;1.52;;;2.90;99.90;;;;;;5048281;28;20243;-86
2023/11/30 11:13:03;;;;;;;2.90;2.70;;;2.90;99.90;;;;;;5045409;28;20228;-85
2023/11/30 11:15:31;;;;;;;0.70;0.70;;;2.80;99.90;;;;;;5048216;28;20272;-85
2023/11/30 11:18:07;;;;;;;3.05;2.88;;;2.70;99.90;;;;;;5041395;28;20295;-85
2023/11/30 11:20:37;;;;;;;0.88;0.88;;;2.70;99.90;;;;;;5046024;28;20263;-86
2023/11/30 11:23:07;;;;;;;2.75;2.65;;;2.40;99.90;;;;;;5039462;28;20248;-86
2023/11/30 11:25:43;;;;;;;1.25;1.25;;;2.40;99.90;;;;;;5052608;28;20246;-85
2023/11/30 11:28:19;;;;;;;3.05;2.95;;;2.20;99.90;;;;;;5048303;28;20329;-87
2023/11/30 11:30:48;;;;;;;0.80;0.80;;;2.10;99.90;;;;;;5052170;28;20200;-87
2023/11/30 11:33:18;;;;;;;1.00;1.00;;;2.00;99.90;;;;;;5044575;28;20204;-86
2023/11/30 11:35:46;;;;;;;2.28;2.15;;;1.80;99.90;;;;;;5063116;28;20239;-85
2023/11/30 11:38:13;;;;;;;1.17;1.13;;;1.80;99.90;;;;;;5051094;28;20205;-86
2023/11/30 11:40:41;;;;;;;3.75;3.55;;;1.80;99.90;;;;;;5058236;28;20234;-90
2023/11/30 11:43:08;;;;;;;3.00;2.80;;;1.70;99.90;;;;;;5366156;22;20228;-88
2023/11/30 11:45:36;;;;;;;2.25;2.15;;;1.70;99.90;;;;;;5045835;28;20840;-89
2023/11/30 11:48:04;;;;;;;1.20;1.20;;;1.60;99.90;;;;;;5040436;28;20414;-86
2023/11/30 11:50:31;;;;;;;1.10;1.10;;;1.50;99.90;;;;;;5032377;28;20280;-88
2023/11/30 11:52:59;;;;;;;0.73;0.73;;;1.50;99.90;;;;;;5046761;28;20223;-85
2023/11/30 11:55:27;;;;;;;2.38;2.28;;;1.60;99.90;;;;;;5053330;28;20219;-87
2023/11/30 11:57:54;;;;;;;0.80;0.80;;;1.60;99.90;;;;;;5266097;23;20255;-87
2023/11/30 12:08:30;;;;;;;2.15;2.05;;;1.70;99.90;;;;;;5151550;22;20266;-91
2023/11/30 12:10:59;;;;;;;2.95;2.75;;;1.60;99.90;;;;;;5222828;22;20700;-91
2023/11/30 12:16:08;;;;;;;1.98;1.88;;;1.70;99.90;;;;;;5369784;22;20300;-90
2023/11/30 12:18:36;;;;;;;4.22;4.03;;;1.50;99.90;;;;;;5063384;28;20223;-88
2023/11/30 12:21:04;;;;;;;1.40;1.40;;;1.50;99.90;;;;;;5235444;23;20325;-85
2023/11/30 12:23:33;;;;;;;2.70;2.20;;;1.50;99.90;;;;;;5085403;28;20259;-84
2023/11/30 12:26:01;;;;;;;1.60;1.60;;;1.60;99.90;;;;;;5083021;28;20211;-88
2023/11/30 12:28:28;;;;;;;1.58;1.48;;;1.30;99.90;;;;;;5082055;28;20278;-85
2023/11/30 12:30:55;;;;;;;3.40;2.95;;;1.20;99.90;;;;;;5084216;28;20475;-87
2023/11/30 12:33:22;;;;;;;1.90;1.85;;;1.10;99.90;;;;;;5085341;28;20214;-87
2023/11/30 12:35:52;;;;;;;3.53;3.20;;;1.10;99.90;;;;;;5084700;28;20208;-84
2023/11/30 12:38:19;;;;;;;1.67;1.58;;;1.20;99.90;;;;;;5089359;28;20215;-87
2023/11/30 12:40:46;;;;;;;4.35;4.07;;;1.20;99.90;;;;;;5086051;28;20203;-87
2023/11/30 12:43:16;;;;;;;1.08;1.08;;;1.20;99.90;;;;;;5083668;28;20274;-83
2023/11/30 12:45:44;;;;;;;0.82;0.82;;;1.30;99.90;;;;;;5084889;28;20387;-84
2023/11/30 12:48:13;;;;;;;7.60;3.45;;;1.30;99.90;;;;;;5094975;28;20225;-86
2023/11/30 12:50:41;;;;;;;1.10;1.10;;;1.40;99.90;;;;;;5096334;28;20179;-86
2023/11/30 12:53:08;;;;;;;2.15;2.05;;;1.40;99.90;;;;;;5095120;28;20246;-86
2023/11/30 12:55:35;;;;;;;4.30;3.05;;;1.50;99.90;;;;;;5094160;28;20206;-87
2023/11/30 12:58:02;;;;;;;2.50;2.38;;;1.50;99.90;;;;;;5086121;28;20199;-85
2023/11/30 13:00:30;;;;;;;1.95;1.85;;;1.60;99.90;;;;;;5083591;28;20196;-85
2023/11/30 13:02:56;;;;;;;2.03;1.92;;;1.50;99.90;;;;;;5082867;28;20203;-85
2023/11/30 13:05:23;;;;;;;2.65;2.55;;;1.50;99.90;;;;;;5082224;28;20221;-85
2023/11/30 13:07:50;;;;;;;2.22;2.15;;;1.40;99.90;;;;;;5081837;28;20223;-87
2023/11/30 13:10:22;;;;;;;1.38;1.38;;;1.30;99.90;;;;;;5083877;28;20411;-84
2023/11/30 13:12:49;;;;;;;1.65;1.55;;;1.30;99.90;;;;;;5084303;28;20211;-84
2023/11/30 13:15:17;;;;;;;5.65;5.20;;;1.20;99.90;;;;;;5080977;28;20223;-85
2023/11/30 13:17:47;;;;;;;2.80;2.70;;;1.20;99.90;;;;;;5084923;28;20207;-86
2023/11/30 13:20:15;;;;;;;2.33;2.22;;;1.20;99.90;;;;;;5083879;28;20199;-83
2023/11/30 13:22:44;;;;;;;9.52;5.80;;;1.30;99.90;;;;;;5083961;28;20547;-83
2023/11/30 13:25:13;;;;;;;4.95;4.47;;;1.40;99.90;;;;;;5094864;28;20208;-85
2023/11/30 13:27:47;;;;;;;2.97;2.65;;;1.50;99.90;;;;;;5100159;28;20195;-84
2023/11/30 13:30:16;;;;;;;2.95;1.77;;;1.50;99.90;;;;;;5095620;28;20184;-84
2023/11/30 13:32:44;;;;;;;5.22;4.80;;;1.60;99.90;;;;;;5096553;28;20305;-84
2023/11/30 13:35:11;;;;;;;3.58;3.33;;;1.60;99.90;;;;;;5096507;28;20222;-82
2023/11/30 13:37:39;;;;;;;1.30;1.30;;;1.60;99.90;;;;;;5096639;28;20243;-86
2023/11/30 13:40:07;;;;;;;1.58;1.58;;;1.60;99.90;;;;;;5088837;28;20255;-85
2023/11/30 13:42:35;;;;;;;3.38;3.20;;;1.70;99.90;;;;;;5085216;28;20226;-83
2023/11/30 13:45:02;;;;;;;2.33;2.22;;;1.80;99.90;;;;;;5087543;28;20309;-85
2023/11/30 13:47:30;;;;;;;3.67;3.42;;;1.60;99.90;;;;;;5085630;28;20231;-84
2023/11/30 13:49:58;;;;;;;3.05;2.83;;;1.50;99.90;;;;;;5084740;28;20207;-83
2023/11/30 13:52:27;;;;;;;3.72;3.53;;;1.60;99.90;;;;;;5087703;28;20231;-86
2023/11/30 13:54:54;;;;;;;3.83;3.63;;;1.60;99.90;;;;;;5084650;28;20200;-86
2023/11/30 13:57:21;;;;;;;7.35;5.03;;;1.50;99.90;;;;;;5083507;28;20220;-85
2023/11/30 13:59:48;;;;;;;3.97;3.58;;;1.40;99.90;;;;;;5084657;28;20212;-85
2023/11/30 14:02:15;;;;;;;1.42;1.35;;;1.40;99.90;;;;;;5087085;28;20796;-84
2023/11/30 14:04:42;;;;;;;1.98;1.88;;;1.30;99.90;;;;;;5086549;28;20226;-85
2023/11/30 14:07:09;;;;;;;3.55;3.35;;;1.30;99.90;;;;;;5087328;28;20222;-83
2023/11/30 14:09:37;;;;;;;7.93;2.95;;;1.20;99.90;;;;;;5088998;28;20222;-85
2023/11/30 14:12:04;;;;;;;4.75;4.43;;;1.20;99.90;;;;;;5092999;28;20231;-88
2023/11/30 14:14:34;;;;;;;2.40;2.30;;;1.30;99.90;;;;;;5088755;28;20204;-84
2023/11/30 14:17:03;;;;;;;1.73;1.63;;;1.20;99.90;;;;;;5085350;28;20207;-82
2023/11/30 14:19:33;;;;;;;2.88;2.78;;;1.10;99.90;;;;;;5088324;28;20192;-83
2023/11/30 14:22:11;;;;;;;2.58;1.95;;;1.20;99.90;;;;;;5084112;28;20455;-83
2023/11/30 14:24:39;;;;;;;3.40;3.30;;;1.00;99.90;;;;;;5086182;28;20274;-87
2023/11/30 14:27:07;;;;;;;4.00;1.40;;;0.90;99.90;;;;;;5074809;28;20203;-82
2023/11/30 14:29:34;;;;;;;1.55;1.55;;;1.00;99.90;;;;;;5078305;28;20259;-85
2023/11/30 14:32:03;;;;;;;2.35;2.08;;;1.10;99.90;;;;;;5085550;28;20238;-84
2023/11/30 14:34:31;;;;;;;1.52;1.52;;;1.00;99.90;;;;;;5085834;28;20208;-86
2023/11/30 14:36:58;;;;;;;1.65;1.33;;;1.00;99.90;;;;;;5096982;28;20199;-86
2023/11/30 14:39:28;;;;;;;2.25;2.15;;;1.10;99.90;;;;;;5086586;28;20203;-84
2023/11/30 14:41:58;;;;;;;2.30;2.20;;;0.80;99.90;;;;;;5087831;28;20203;-83
2023/11/30 14:44:26;;;;;;;5.32;3.80;;;0.80;99.90;;;;;;5082637;28;20231;-85
2023/11/30 14:46:53;;;;;;;2.30;2.20;;;0.70;99.90;;;;;;5086634;28;20237;-85
2023/11/30 14:49:27;;;;;;;3.40;3.00;;;0.60;99.90;;;;;;5096587;28;20179;-87
2023/11/30 14:51:54;;;;;;;4.20;3.72;;;0.40;99.90;;;;;;5387699;22;20208;-87
2023/11/30 14:54:21;;;;;;;4.35;3.95;;;0.50;99.90;;;;;;5071858;28;20208;-87
2023/11/30 14:56:50;;;;;;;2.53;2.33;;;0.30;99.90;;;;;;5065559;28;20424;-87
2023/11/30 14:59:17;;;;;;;1.95;1.85;;;0.30;99.90;;;;;;5067256;28;20224;-87
2023/11/30 15:01:44;;;;;;;3.50;3.30;;;0.10;99.90;;;;;;5060563;28;20271;-87
2023/11/30 15:04:11;;;;;;;6.07;4.20;;;0.20;99.90;;;;;;5066071;28;20668;-84
2023/11/30 15:06:39;;;;;;;11.68;5.25;;;0.10;99.90;;;;;;5060793;28;20200;-88
2023/11/30 15:09:08;;;;;;;1.92;1.80;;;-0.10;99.90;;;;;;5070630;28;20245;-87
2023/11/30 15:11:35;;;;;;;2.80;2.45;;;-0.20;99.90;;;;;;5069483;28;20210;-85
2023/11/30 15:14:04;;;;;;;6.57;4.50;;;-0.30;99.90;;;;;;5070590;28;20268;-86
2023/11/30 15:16:32;;;;;;;4.72;4.10;;;-0.40;99.90;;;;;;5049553;28;20207;-86
2023/11/30 15:19:01;;;;;;;2.70;2.60;;;-0.40;99.90;;;;;;5068758;28;20268;-85
2023/11/30 15:21:28;;;;;;;9.77;8.75;;;-0.40;99.90;;;;;;5067447;28;20246;-87
2023/11/30 15:23:56;;;;;;;22.42;3.92;;;-0.50;99.90;;;;;;5067945;28;20223;-87
2023/11/30 15:26:23;;;;;;;8.27;6.53;;;-0.70;99.90;;;;;;5068321;28;20220;-87
2023/11/30 15:31:32;;;;;;;8.00;7.03;;;-1.00;99.90;;;;;;5284919;22;20227;-86
2023/11/30 15:36:35;;;;;;;6.00;5.63;;;-1.00;99.90;;;;;;5258577;22;20231;-87
2023/11/30 15:39:12;;;;;;;3.25;3.05;;;-1.00;99.90;;;;;;5711432;22;21585;-86